Terminal Aerodrome Forecast
Issued by NWS Cleveland, OH

Home | Current Version | Previous Version | Graphics & Text | Print | Product List | Glossary On
Versions: 1 2 3 4 5 6 7 8 9 10 11 12 13 14 15 16 17 18 19 20 21 22 23
237
FTUS41 KCLE 220251 AAB
TAFCLE
TAF AMD
KCLE 220251Z 2203/2306 33010KT P6SM BKN035
     FM220600 36008KT P6SM OVC025
     FM221500 03010KT P6SM OVC030
     FM221700 02012KT P6SM BKN250=

USA.gov is the U.S. government's official web portal to all federal, state and local government web resources and services.